Terminal Aerodrome Forecast
Issued by NWS

Home | Current Version | Previous Version | Text Only | Print | Product List | Glossary On
Versions: 1 2 3 4 5 6 7 8 9 10 11 12 13 14 15 16 17 18 19 20 21 22 23 24 25 26 27 28 29 30 31 32 33 34 35 36 37 38 39 40 41 42 43
000
FTUS45 KGJT 020537
TAFMTJ
TAF
KMTJ 020537Z 0206/0306 14005KT P6SM VCSH FEW025 SCT050 OVC080
      TEMPO 0206/0210 5SM -SN BR BKN025
     FM021200 15012G18KT P6SM VCSH BKN040 OVC060
     FM021900 21017G27KT P6SM VCSH SCT040 BKN060
     FM022300 23015G25KT P6SM -RA SCT025 BKN040 OVC060
     FM030100 23012G22KT 4SM -RA BR SCT015 BKN025 OVC040=

USA.gov is the U.S. government's official web portal to all federal, state and local government web resources and services.